Time;durP1;ratioP1;P1;durP2;ratioP2;P2;SDS_P1;SDS_P2;PMS_P1;PMS_P2;Temp;Humidity;BMP_temperature;BMP_pressure;BME280_temperature;BME280_humidity;BME280_pressure;Samples;Min_cycle;Max_cycle;Signal;HPM_P1;HPM_P2
2023/09/04 00:01:36;;;;;;;9.80;6.45;;;;;;;-146.87;100.00;60295.22;4980455;28;20202;-48
2023/09/04 00:04:03;;;;;;;10.55;7.00;;;;;;;-146.87;100.00;60295.22;4984379;28;20174;-50
2023/09/04 00:06:30;;;;;;;8.93;5.55;;;;;;;-146.87;100.00;60295.22;4981646;28;20300;-49
2023/09/04 00:08:57;;;;;;;6.00;5.38;;;;;;;-146.87;100.00;60295.22;4982537;28;20268;-49
2023/09/04 00:11:27;;;;;;;8.32;5.07;;;;;;;-146.87;100.00;60295.22;4978884;28;20687;-49
2023/09/04 00:13:53;;;;;;;8.15;6.40;;;;;;;-146.87;100.00;60295.22;4985945;28;20192;-48
2023/09/04 00:16:18;;;;;;;6.97;5.63;;;;;;;-146.87;100.00;60295.22;4980875;28;20181;-49
2023/09/04 00:18:44;;;;;;;8.48;6.55;;;;;;;-146.87;100.00;60295.22;4969441;28;20550;-49
2023/09/04 00:21:09;;;;;;;12.40;7.15;;;;;;;-146.87;100.00;60295.22;4981283;28;20198;-50
2023/09/04 00:23:35;;;;;;;6.38;5.80;;;;;;;-146.87;100.00;60295.22;4986132;28;20191;-49
2023/09/04 00:26:00;;;;;;;7.18;6.25;;;;;;;-146.87;100.00;60295.22;4983681;28;20198;-49
2023/09/04 00:28:26;;;;;;;10.25;6.13;;;;;;;-146.87;100.00;60295.22;4981858;28;20806;-50
2023/09/04 00:30:51;;;;;;;8.68;6.72;;;;;;;-146.87;100.00;60295.22;4982159;28;20235;-48
2023/09/04 00:33:17;;;;;;;12.95;8.57;;;;;;;-146.87;100.00;60295.22;4981338;28;20616;-48
2023/09/04 00:35:43;;;;;;;10.60;6.68;;;;;;;-146.87;100.00;60295.22;4980731;28;20289;-49
2023/09/04 00:38:09;;;;;;;6.70;6.07;;;;;;;-146.87;100.00;60295.22;4982211;28;20174;-48
2023/09/04 00:40:34;;;;;;;9.90;7.20;;;;;;;-146.87;100.00;60295.22;4980919;28;20194;-49
2023/09/04 00:43:01;;;;;;;11.32;7.75;;;;;;;-146.87;100.00;60295.22;4982564;28;20190;-49
2023/09/04 00:45:27;;;;;;;10.43;8.07;;;;;;;-146.87;100.00;60295.22;4981823;28;20186;-49
2023/09/04 00:47:53;;;;;;;11.30;9.50;;;;;;;-146.87;100.00;60295.22;4969635;28;20177;-49
2023/09/04 00:50:22;;;;;;;16.95;8.63;;;;;;;-146.87;100.00;60295.22;4968961;28;20225;-50
2023/09/04 00:52:54;;;;;;;8.80;7.22;;;;;;;-146.87;100.00;60295.22;4951053;28;20242;-49
2023/09/04 00:55:20;;;;;;;12.73;10.27;;;;;;;-146.87;100.00;60295.22;4982462;28;20186;-49
2023/09/04 00:57:47;;;;;;;13.00;10.48;;;;;;;-146.87;100.00;60295.22;4984079;28;20190;-49
2023/09/04 01:00:14;;;;;;;12.65;11.43;;;;;;;-146.87;100.00;60295.22;4966122;28;20193;-48
2023/09/04 01:02:40;;;;;;;16.20;12.60;;;;;;;-146.87;100.00;60295.22;4985265;28;20172;-48
2023/09/04 01:05:07;;;;;;;15.75;12.88;;;;;;;-146.87;100.00;60295.22;4981763;28;20390;-49
2023/09/04 01:07:35;;;;;;;11.52;10.32;;;;;;;-146.87;100.00;60295.22;4986912;28;20228;-48
2023/09/04 01:10:03;;;;;;;17.90;12.77;;;;;;;-146.87;100.00;60295.22;4983906;28;20662;-48
2023/09/04 01:12:56;;;;;;;15.75;11.60;;;;;;;-146.87;100.00;60295.22;4985031;28;20632;-48
2023/09/04 01:15:24;;;;;;;16.25;13.68;;;;;;;-146.87;100.00;60295.22;4985537;28;20185;-49
2023/09/04 01:17:51;;;;;;;20.27;14.60;;;;;;;-146.87;100.00;60295.22;4982984;28;20181;-48
2023/09/04 01:20:26;;;;;;;16.25;12.85;;;;;;;-146.87;100.00;60295.22;4976777;28;20737;-49
2023/09/04 01:22:53;;;;;;;18.55;14.40;;;;;;;-146.87;100.00;60295.22;4963412;28;20240;-48
2023/09/04 01:25:20;;;;;;;16.85;13.45;;;;;;;-146.87;100.00;60295.22;4982687;28;20236;-50
2023/09/04 01:27:58;;;;;;;19.83;14.40;;;;;;;-146.87;100.00;60295.22;4984524;28;20205;-49
2023/09/04 01:30:55;;;;;;;18.80;14.23;;;;;;;-146.87;100.00;60295.22;4984355;28;20209;-49
2023/09/04 01:33:28;;;;;;;15.88;13.02;;;;;;;-146.87;100.00;60295.22;4976770;28;20228;-49
2023/09/04 01:35:56;;;;;;;20.63;14.60;;;;;;;-146.87;100.00;60295.22;4981484;28;20567;-49
2023/09/04 01:38:22;;;;;;;14.45;11.63;;;;;;;-146.87;100.00;60295.22;4968688;28;20268;-49
2023/09/04 01:40:51;;;;;;;18.40;14.10;;;;;;;-146.87;100.00;60295.22;4977434;28;20236;-48
2023/09/04 01:43:17;;;;;;;16.30;13.40;;;;;;;-146.87;100.00;60295.22;4970277;28;20173;-49
2023/09/04 01:45:43;;;;;;;18.23;14.05;;;;;;;-146.87;100.00;60295.22;4979170;28;20257;-49
2023/09/04 01:48:09;;;;;;;17.15;12.18;;;;;;;-146.87;100.00;60295.22;4983628;28;20192;-51
2023/09/04 01:50:34;;;;;;;14.98;13.38;;;;;;;-146.87;100.00;60295.22;4985147;28;20213;-49
2023/09/04 01:53:00;;;;;;;14.52;11.18;;;;;;;-146.87;100.00;60295.22;4983804;28;20201;-48
2023/09/04 01:55:25;;;;;;;12.68;11.13;;;;;;;-146.87;100.00;60295.22;4982418;28;20276;-49
2023/09/04 01:57:51;;;;;;;12.23;10.60;;;;;;;-146.87;100.00;60295.22;4968227;28;20605;-49
2023/09/04 02:00:17;;;;;;;13.95;10.00;;;;;;;-146.87;100.00;60295.22;4968319;28;20304;-48
2023/09/04 02:02:43;;;;;;;12.93;11.52;;;;;;;-146.87;100.00;60295.22;4984178;28;20221;-49
2023/09/04 02:05:08;;;;;;;11.63;10.43;;;;;;;-146.87;100.00;60295.22;4985400;28;20203;-50
2023/09/04 02:07:34;;;;;;;12.38;10.75;;;;;;;-146.87;100.00;60295.22;4981080;28;20203;-49
2023/09/04 02:09:59;;;;;;;13.57;12.10;;;;;;;-146.87;100.00;60295.22;4983003;28;20209;-48
2023/09/04 02:12:25;;;;;;;14.15;10.63;;;;;;;-146.87;100.00;60295.22;4987068;28;20209;-50
2023/09/04 02:14:52;;;;;;;11.18;8.68;;;;;;;-146.87;100.00;60295.22;4985501;28;20302;-49
2023/09/04 02:17:17;;;;;;;12.80;11.25;;;;;;;-146.87;100.00;60295.22;4981125;28;20656;-50
2023/09/04 02:19:43;;;;;;;12.40;10.40;;;;;;;-146.87;100.00;60295.22;4983981;28;20209;-50
2023/09/04 02:22:08;;;;;;;11.18;8.75;;;;;;;-146.87;100.00;60295.22;4968582;28;20185;-51
2023/09/04 02:24:34;;;;;;;13.05;10.93;;;;;;;-146.87;100.00;60295.22;4969716;28;20185;-48
2023/09/04 02:27:00;;;;;;;13.32;10.93;;;;;;;-146.87;100.00;60295.22;4982122;28;20212;-48
2023/09/04 02:29:27;;;;;;;14.43;12.15;;;;;;;-146.87;100.00;60295.22;4983976;28;20193;-49
2023/09/04 02:31:53;;;;;;;18.20;11.90;;;;;;;-146.87;100.00;60295.22;4985569;28;20182;-47
2023/09/04 02:34:19;;;;;;;12.63;10.35;;;;;;;-146.87;100.00;60295.22;4972195;28;20189;-48
2023/09/04 02:36:45;;;;;;;13.63;11.27;;;;;;;-146.87;100.00;60295.22;4987549;28;20682;-48
2023/09/04 02:39:11;;;;;;;13.75;12.18;;;;;;;-146.87;100.00;60295.22;4986970;28;20318;-48
2023/09/04 02:41:37;;;;;;;13.07;11.77;;;;;;;-146.87;100.00;60295.22;4983194;28;20699;-48
2023/09/04 02:44:03;;;;;;;14.80;12.07;;;;;;;-146.87;100.00;60295.22;4987534;28;20201;-48
2023/09/04 02:46:32;;;;;;;12.85;11.25;;;;;;;-146.87;100.00;60295.22;4987551;28;20692;-48
2023/09/04 02:48:58;;;;;;;15.80;12.43;;;;;;;-146.87;100.00;60295.22;4971164;28;20193;-48
2023/09/04 02:51:24;;;;;;;16.48;13.70;;;;;;;-146.87;100.00;60295.22;4984320;28;20201;-47
2023/09/04 02:53:50;;;;;;;18.77;14.07;;;;;;;-146.87;100.00;60295.22;4985826;28;20325;-47
2023/09/04 02:56:15;;;;;;;15.43;12.95;;;;;;;-146.87;100.00;60295.22;4988219;28;20178;-48
2023/09/04 02:58:41;;;;;;;13.15;11.40;;;;;;;-146.87;100.00;60295.22;4972003;28;20189;-47
2023/09/04 03:01:08;;;;;;;16.13;13.55;;;;;;;-146.87;100.00;60295.22;4967894;28;20236;-48
2023/09/04 03:03:33;;;;;;;18.42;15.00;;;;;;;-146.87;100.00;60295.22;4968645;28;20276;-46
2023/09/04 03:06:09;;;;;;;20.10;14.93;;;;;;;-146.87;100.00;60295.22;4977099;28;20609;-49
2023/09/04 03:08:35;;;;;;;20.42;16.52;;;;;;;-146.87;100.00;60295.22;4967243;28;20180;-45
2023/09/04 03:11:01;;;;;;;17.00;15.13;;;;;;;-146.87;100.00;60295.22;4984407;28;20296;-47
2023/09/04 03:13:26;;;;;;;19.85;15.18;;;;;;;-146.87;100.00;60295.22;4971144;28;20187;-46
2023/09/04 03:15:52;;;;;;;22.42;17.05;;;;;;;-146.87;100.00;60295.22;4970329;28;20186;-44
2023/09/04 03:18:18;;;;;;;21.80;17.63;;;;;;;-146.87;100.00;60295.22;4975333;28;20572;-46
2023/09/04 03:20:44;;;;;;;24.00;17.10;;;;;;;-146.87;100.00;60295.22;4974090;28;20213;-44
2023/09/04 03:23:09;;;;;;;20.25;14.27;;;;;;;-146.87;100.00;60295.22;4981265;28;20189;-46
2023/09/04 03:25:36;;;;;;;22.13;17.23;;;;;;;-146.87;100.00;60295.22;4969318;28;20190;-44
2023/09/04 03:28:02;;;;;;;18.45;15.77;;;;;;;-146.87;100.00;60295.22;4966909;28;20186;-45
2023/09/04 03:30:28;;;;;;;18.55;16.45;;;;;;;-146.87;100.00;60295.22;4964581;28;20706;-44
2023/09/04 03:32:54;;;;;;;20.83;16.90;;;;;;;-146.87;100.00;60295.22;4969850;28;20208;-45
2023/09/04 03:35:20;;;;;;;23.17;16.80;;;;;;;-146.87;100.00;60295.22;4972594;28;20656;-45
2023/09/04 03:37:46;;;;;;;20.85;17.15;;;;;;;-146.87;100.00;60295.22;4983591;28;20703;-45
2023/09/04 03:40:23;;;;;;;20.92;16.88;;;;;;;-146.87;100.00;60295.22;4969285;28;20216;-42
2023/09/04 03:42:50;;;;;;;21.67;16.85;;;;;;;-146.87;100.00;60295.22;4977738;28;20186;-46
2023/09/04 03:45:16;;;;;;;17.77;14.15;;;;;;;-146.87;100.00;60295.22;4987010;28;20196;-46
2023/09/04 03:47:44;;;;;;;16.15;14.45;;;;;;;-146.87;100.00;60295.22;4980547;28;20577;-45
2023/09/04 03:50:11;;;;;;;13.82;12.48;;;;;;;-146.87;100.00;60295.22;4963075;28;20214;-47
2023/09/04 03:52:38;;;;;;;15.55;13.98;;;;;;;-146.87;100.00;60295.22;4979999;28;20189;-44
2023/09/04 03:55:08;;;;;;;16.23;13.93;;;;;;;-146.87;100.00;60295.22;4968754;28;20190;-45
2023/09/04 03:57:37;;;;;;;17.13;15.32;;;;;;;-146.87;100.00;60295.22;4968101;28;20178;-46
2023/09/04 04:00:14;;;;;;;15.23;13.23;;;;;;;-146.87;100.00;60295.22;4967914;28;20213;-45
2023/09/04 04:02:41;;;;;;;16.90;15.10;;;;;;;-146.87;100.00;60295.22;4981754;28;20221;-44
2023/09/04 04:05:12;;;;;;;14.77;13.10;;;;;;;-146.87;100.00;60295.22;4966516;28;20664;-43
2023/09/04 04:07:38;;;;;;;16.45;13.85;;;;;;;-146.87;100.00;60295.22;4960656;28;20244;-43
2023/09/04 04:10:05;;;;;;;15.15;13.57;;;;;;;-146.87;100.00;60295.22;4966795;28;20203;-45
2023/09/04 04:12:32;;;;;;;14.73;12.00;;;;;;;-146.87;100.00;60295.22;4968724;28;20277;-44
2023/09/04 04:15:04;;;;;;;11.05;9.95;;;;;;;-146.87;100.00;60295.22;4978144;28;20224;-45
2023/09/04 04:17:30;;;;;;;12.93;11.23;;;;;;;-146.87;100.00;60295.22;4980132;28;20586;-45
2023/09/04 04:19:56;;;;;;;15.05;13.55;;;;;;;-146.87;100.00;60295.22;4984528;28;20232;-44
2023/09/04 04:22:23;;;;;;;14.90;13.32;;;;;;;-146.87;100.00;60295.22;4969358;28;20276;-45
2023/09/04 04:24:49;;;;;;;15.98;14.30;;;;;;;-146.87;100.00;60295.22;4985676;28;20276;-45
2023/09/04 04:27:18;;;;;;;13.80;12.18;;;;;;;-146.87;100.00;60295.22;4982308;28;20317;-45
2023/09/04 04:29:44;;;;;;;15.63;13.10;;;;;;;-146.87;100.00;60295.22;4983744;28;20201;-45
2023/09/04 04:32:10;;;;;;;15.80;13.38;;;;;;;-146.87;100.00;60295.22;4966810;28;20189;-45
2023/09/04 04:34:35;;;;;;;20.90;16.45;;;;;;;-146.87;100.00;60295.22;4981803;28;20240;-46
2023/09/04 04:37:01;;;;;;;19.23;16.92;;;;;;;-146.87;100.00;60295.22;4981227;28;20638;-45
2023/09/04 04:39:28;;;;;;;19.13;17.13;;;;;;;-146.87;100.00;60295.22;4962436;28;20197;-44
2023/09/04 04:41:55;;;;;;;25.45;20.73;;;;;;;-146.87;100.00;60295.22;4972977;28;20189;-45
2023/09/04 04:44:21;;;;;;;24.45;21.83;;;;;;;-146.87;100.00;60295.22;4967865;28;20182;-45
2023/09/04 04:46:47;;;;;;;33.55;25.45;;;;;;;-146.87;100.00;60295.22;4978059;28;20735;-45
2023/09/04 04:49:22;;;;;;;35.13;27.02;;;;;;;-146.87;100.00;60295.22;4962052;28;20296;-44
2023/09/04 04:51:49;;;;;;;26.60;22.15;;;;;;;-146.87;100.00;60295.22;4973074;28;20696;-45
2023/09/04 04:54:16;;;;;;;37.22;25.63;;;;;;;-146.87;100.00;60295.22;4968525;28;20190;-44
2023/09/04 04:56:41;;;;;;;40.33;28.35;;;;;;;-146.87;100.00;60295.22;4984419;28;20177;-45
2023/09/04 04:59:08;;;;;;;31.88;23.73;;;;;;;-146.87;100.00;60295.22;4980953;28;20322;-46
2023/09/04 05:01:34;;;;;;;27.50;21.23;;;;;;;-146.87;100.00;60295.22;4946154;28;20300;-44
2023/09/04 05:04:00;;;;;;;29.33;22.65;;;;;;;-146.87;100.00;60295.22;4967586;28;20277;-44
2023/09/04 05:06:25;;;;;;;23.00;20.05;;;;;;;-146.87;100.00;60295.22;4967793;28;20304;-46
2023/09/04 05:08:51;;;;;;;32.65;23.70;;;;;;;-146.87;100.00;60295.22;4953921;28;20487;-47
2023/09/04 05:11:17;;;;;;;33.78;24.63;;;;;;;-146.87;100.00;60295.22;4984092;28;20574;-47
2023/09/04 05:13:43;;;;;;;48.67;29.55;;;;;;;-146.87;100.00;60295.22;4969129;28;20267;-46
2023/09/04 05:16:09;;;;;;;39.50;26.92;;;;;;;-146.87;100.00;60295.22;4963910;28;20256;-46
2023/09/04 05:18:36;;;;;;;48.05;27.40;;;;;;;-146.87;100.00;60295.22;4967505;28;20181;-47
2023/09/04 05:21:06;;;;;;;52.15;28.60;;;;;;;-146.87;100.00;60295.22;4969471;28;20212;-46
2023/09/04 05:23:32;;;;;;;51.40;29.35;;;;;;;-146.87;100.00;60295.22;4963624;28;20188;-46
2023/09/04 05:25:59;;;;;;;41.03;25.50;;;;;;;-146.87;100.00;60295.22;4982678;28;20224;-47
2023/09/04 05:28:25;;;;;;;50.30;29.83;;;;;;;-146.87;100.00;60295.22;4971689;28;20177;-47
2023/09/04 05:30:50;;;;;;;63.28;28.77;;;;;;;-146.87;100.00;60295.22;4981975;28;20296;-47
2023/09/04 05:33:16;;;;;;;46.25;27.00;;;;;;;-146.87;100.00;60295.22;4981780;28;20182;-46
2023/09/04 05:35:42;;;;;;;42.97;25.23;;;;;;;-146.87;100.00;60295.22;4984144;28;20695;-47
2023/09/04 05:38:07;;;;;;;39.92;24.65;;;;;;;-146.87;100.00;60295.22;4985197;28;20189;-48
2023/09/04 05:40:33;;;;;;;45.38;26.02;;;;;;;-146.87;100.00;60295.22;4979713;28;20271;-48
2023/09/04 05:42:59;;;;;;;45.78;24.52;;;;;;;-146.87;100.00;60295.22;4976218;28;20664;-48
2023/09/04 05:45:25;;;;;;;37.53;22.23;;;;;;;-146.87;100.00;60295.22;4982792;28;20219;-46
2023/09/04 05:47:51;;;;;;;67.43;25.45;;;;;;;-146.87;100.00;60295.22;4983831;28;20747;-48
2023/09/04 05:50:16;;;;;;;36.25;21.77;;;;;;;-146.87;100.00;60295.22;4979343;28;20205;-47
2023/09/04 05:52:42;;;;;;;48.38;25.20;;;;;;;-146.87;100.00;60295.22;4970558;28;20192;-48
2023/09/04 05:55:08;;;;;;;67.68;25.73;;;;;;;-146.87;100.00;60295.22;4971441;28;20198;-41
2023/09/04 05:57:35;;;;;;;46.53;25.45;;;;;;;-146.87;100.00;60295.22;4982875;28;20174;-41
2023/09/04 06:00:03;;;;;;;53.53;25.92;;;;;;;-146.87;100.00;60295.22;4983162;28;20280;-42
2023/09/04 06:02:38;;;;;;;51.63;27.85;;;;;;;-146.87;100.00;60295.22;4978189;28;20283;-40
2023/09/04 06:05:04;;;;;;;42.92;24.70;;;;;;;-146.87;100.00;60295.22;4980296;28;20292;-43
2023/09/04 06:07:30;;;;;;;44.28;25.77;;;;;;;-146.87;100.00;60295.22;4977466;28;20681;-43
2023/09/04 06:09:56;;;;;;;41.35;23.60;;;;;;;-146.87;100.00;60295.22;4981842;28;20209;-44
2023/09/04 06:12:21;;;;;;;46.22;26.25;;;;;;;-146.87;100.00;60295.22;4984581;28;20539;-43
2023/09/04 06:14:46;;;;;;;46.30;26.17;;;;;;;-146.87;100.00;60295.22;4980010;28;20216;-44
2023/09/04 06:17:12;;;;;;;49.50;25.55;;;;;;;-146.87;100.00;60295.22;4980331;28;20192;-42
2023/09/04 06:19:38;;;;;;;44.60;25.52;;;;;;;-146.87;100.00;60295.22;4979267;28;20244;-42
2023/09/04 06:22:03;;;;;;;46.17;26.98;;;;;;;-146.87;100.00;60295.22;4964784;28;20235;-44
2023/09/04 06:24:29;;;;;;;46.08;25.52;;;;;;;-146.87;100.00;60295.22;4981001;28;20190;-41
2023/09/04 06:26:54;;;;;;;48.17;27.40;;;;;;;-146.87;100.00;60295.22;4983906;28;20240;-42
2023/09/04 06:29:20;;;;;;;39.20;25.85;;;;;;;-146.87;100.00;60295.22;4980456;28;20193;-40
2023/09/04 06:31:45;;;;;;;45.67;27.20;;;;;;;-146.87;100.00;60295.22;4981189;28;20625;-41
2023/09/04 06:34:12;;;;;;;46.40;27.88;;;;;;;-146.87;100.00;60295.22;4986083;28;20524;-41
2023/09/04 06:36:37;;;;;;;43.53;26.73;;;;;;;-146.87;100.00;60295.22;4977434;28;20273;-43
2023/09/04 06:39:04;;;;;;;44.15;27.63;;;;;;;-146.87;100.00;60295.22;4964592;28;20201;-44
2023/09/04 06:41:33;;;;;;;37.88;25.60;;;;;;;-146.87;100.00;60295.22;4981703;28;20208;-42
2023/09/04 06:43:59;;;;;;;43.78;27.90;;;;;;;-146.87;100.00;60295.22;4978982;28;20618;-42
2023/09/04 06:46:25;;;;;;;39.92;26.73;;;;;;;-146.87;100.00;60295.22;4978851;28;20237;-42
2023/09/04 06:48:50;;;;;;;41.40;27.35;;;;;;;-146.87;100.00;60295.22;4984497;28;20223;-42
2023/09/04 06:51:16;;;;;;;36.30;24.75;;;;;;;-146.87;100.00;60295.22;4978719;28;20216;-42
2023/09/04 06:53:42;;;;;;;38.28;25.67;;;;;;;-146.87;100.00;60295.22;4981347;28;20181;-44
2023/09/04 06:56:08;;;;;;;38.55;26.00;;;;;;;-146.87;100.00;60295.22;4980232;28;20711;-40
2023/09/04 06:58:34;;;;;;;40.60;24.85;;;;;;;-146.87;100.00;60295.22;4980666;28;20615;-43
2023/09/04 07:01:03;;;;;;;35.35;27.10;;;;;;;-146.87;100.00;60295.22;4977447;28;20667;-42
2023/09/04 07:03:29;;;;;;;39.30;27.05;;;;;;;-146.87;100.00;60295.22;4980050;28;20207;-43
2023/09/04 07:05:55;;;;;;;33.67;26.88;;;;;;;-146.87;100.00;60295.22;4979691;28;20189;-44
2023/09/04 07:08:20;;;;;;;31.08;23.90;;;;;;;-146.87;100.00;60295.22;4977632;28;20252;-42
2023/09/04 07:10:47;;;;;;;35.55;26.60;;;;;;;-146.87;100.00;60295.22;4981645;28;20197;-42
2023/09/04 07:13:13;;;;;;;33.28;26.38;;;;;;;-146.87;100.00;60295.22;4979808;28;20241;-43
2023/09/04 07:15:40;;;;;;;32.53;24.63;;;;;;;-146.87;100.00;60295.22;4978296;28;20186;-39
2023/09/04 07:18:06;;;;;;;30.02;24.83;;;;;;;-146.87;100.00;60295.22;4981620;28;20226;-43
2023/09/04 07:20:32;;;;;;;24.90;22.20;;;;;;;-146.87;100.00;60295.22;4983489;28;20245;-41
2023/09/04 07:22:58;;;;;;;22.85;20.42;;;;;;;-146.87;100.00;60295.22;4986455;28;20200;-43
2023/09/04 07:25:23;;;;;;;23.05;18.95;;;;;;;-146.87;100.00;60295.22;4979417;28;20187;-43
2023/09/04 07:27:49;;;;;;;18.20;16.27;;;;;;;-146.87;100.00;60295.22;4979940;28;20216;-43
2023/09/04 07:30:14;;;;;;;18.48;15.98;;;;;;;-146.87;100.00;60295.22;4983302;28;20242;-41
2023/09/04 07:32:40;;;;;;;16.70;14.48;;;;;;;-146.87;100.00;60295.22;4969209;28;20228;-43
2023/09/04 07:35:06;;;;;;;14.98;13.45;;;;;;;-146.87;100.00;60295.22;4983946;28;20189;-42
2023/09/04 07:37:32;;;;;;;16.58;14.85;;;;;;;-146.87;100.00;60295.22;4981843;28;20216;-42
2023/09/04 07:39:57;;;;;;;14.98;13.57;;;;;;;-146.87;100.00;60295.22;4988828;28;20205;-42
2023/09/04 07:42:23;;;;;;;13.75;12.45;;;;;;;-146.87;100.00;60295.22;4979948;28;20193;-43
2023/09/04 07:44:49;;;;;;;13.65;12.32;;;;;;;-146.87;100.00;60295.22;4983929;28;20201;-41
2023/09/04 07:47:15;;;;;;;14.25;12.77;;;;;;;-146.87;100.00;60295.22;4987115;28;20711;-44
2023/09/04 07:49:40;;;;;;;13.40;11.43;;;;;;;-146.87;100.00;60295.22;4971339;28;20210;-42
2023/09/04 07:52:06;;;;;;;14.43;13.02;;;;;;;-146.87;100.00;60295.22;4981142;28;20192;-41
2023/09/04 07:54:31;;;;;;;13.70;12.35;;;;;;;-146.87;100.00;60295.22;4984946;28;20196;-42
2023/09/04 07:56:59;;;;;;;12.43;11.10;;;;;;;-146.87;100.00;60295.22;4981613;28;20193;-43
2023/09/04 07:59:24;;;;;;;11.90;10.80;;;;;;;-146.87;100.00;60295.22;4983750;28;20202;-41
2023/09/04 08:01:50;;;;;;;12.73;10.68;;;;;;;-146.87;100.00;60295.22;4980395;28;20663;-43
2023/09/04 08:04:16;;;;;;;12.63;11.32;;;;;;;-146.87;100.00;60295.22;4984750;28;20285;-43
2023/09/04 08:06:42;;;;;;;10.98;9.93;;;;;;;-146.87;100.00;60295.22;4984691;28;20215;-43
2023/09/04 08:09:07;;;;;;;9.80;8.93;;;;;;;-146.87;100.00;60295.22;4981037;28;20182;-42
2023/09/04 08:11:34;;;;;;;10.98;9.88;;;;;;;-146.87;100.00;60295.22;4983041;28;20209;-43
2023/09/04 08:14:00;;;;;;;11.02;8.70;;;;;;;-146.87;100.00;60295.22;4987913;28;20212;-43
2023/09/04 08:16:25;;;;;;;9.77;7.57;;;;;;;-146.87;100.00;60295.22;4984928;28;20217;-43
2023/09/04 08:18:51;;;;;;;9.13;8.10;;;;;;;-146.87;100.00;60295.22;4979077;28;20509;-42
2023/09/04 08:21:17;;;;;;;7.50;6.80;;;;;;;-146.87;100.00;60295.22;4986758;28;20205;-44
2023/09/04 08:23:42;;;;;;;7.10;6.40;;;;;;;-146.87;100.00;60295.22;4983313;28;20186;-42
2023/09/04 08:26:08;;;;;;;9.35;8.38;;;;;;;-146.87;100.00;60295.22;4983094;28;20197;-44
2023/09/04 08:28:34;;;;;;;7.85;6.50;;;;;;;-146.87;100.00;60295.22;4981101;28;20220;-44
2023/09/04 08:31:00;;;;;;;10.40;7.15;;;;;;;-146.87;100.00;60295.22;4987830;28;20654;-44
2023/09/04 08:33:26;;;;;;;9.35;8.43;;;;;;;-146.87;100.00;60295.22;4984074;28;20559;-44
2023/09/04 08:35:51;;;;;;;9.88;8.63;;;;;;;-146.87;100.00;60295.22;4982248;28;20208;-44
2023/09/04 08:38:17;;;;;;;9.38;8.48;;;;;;;-146.87;100.00;60295.22;4983047;28;20623;-40
2023/09/04 08:40:42;;;;;;;11.10;10.02;;;;;;;-146.87;100.00;60295.22;4983357;28;20275;-44
2023/09/04 08:43:08;;;;;;;10.85;7.95;;;;;;;-146.87;100.00;60295.22;4979383;28;20188;-41
2023/09/04 08:45:36;;;;;;;9.10;8.25;;;;;;;-146.87;100.00;60295.22;4984308;28;20182;-42
2023/09/04 08:48:03;;;;;;;6.88;6.28;;;;;;;-146.87;100.00;60295.22;4981613;28;20264;-42
2023/09/04 08:50:30;;;;;;;6.45;5.70;;;;;;;-146.87;100.00;60295.22;4984224;28;20212;-43
2023/09/04 08:52:55;;;;;;;4.50;3.75;;;;;;;-146.87;100.00;60295.22;4976291;28;20189;-43
2023/09/04 08:55:21;;;;;;;7.30;6.60;;;;;;;-146.87;100.00;60295.22;4983607;28;20235;-42
2023/09/04 08:57:47;;;;;;;8.15;6.85;;;;;;;-146.87;100.00;60295.22;4977364;28;20374;-41
2023/09/04 09:00:14;;;;;;;6.43;5.93;;;;;;;-146.87;100.00;60295.22;4978963;28;20689;-42
2023/09/04 09:02:43;;;;;;;6.35;5.40;;;;;;;-146.87;100.00;60295.22;4981895;28;20185;-42
2023/09/04 09:05:12;;;;;;;7.35;5.47;;;;;;;-146.87;100.00;60295.22;4979478;28;20193;-42
2023/09/04 09:07:40;;;;;;;3.60;3.05;;;;;;;-146.87;100.00;60295.22;4981339;28;20585;-43
2023/09/04 09:10:09;;;;;;;6.15;5.20;;;;;;;-146.87;100.00;60295.22;4982878;28;20205;-43
2023/09/04 09:12:35;;;;;;;3.42;2.40;;;;;;;-146.87;100.00;60295.22;4981848;28;20177;-44
2023/09/04 09:15:01;;;;;;;3.83;1.90;;;;;;;-146.87;100.00;60295.22;4967022;28;20689;-43
2023/09/04 09:17:26;;;;;;;2.45;1.95;;;;;;;-146.87;100.00;60295.22;4977307;28;20196;-43
2023/09/04 09:19:52;;;;;;;3.17;1.80;;;;;;;-146.87;100.00;60295.22;4977174;28;20205;-42
2023/09/04 09:22:19;;;;;;;2.55;1.90;;;;;;;-146.87;100.00;60295.22;4987324;28;20726;-44
2023/09/04 09:24:56;;;;;;;2.20;1.65;;;;;;;-146.87;100.00;60295.22;4979981;28;20189;-44
2023/09/04 09:27:44;;;;;;;3.00;1.67;;;;;;;-146.87;100.00;60295.22;4980095;28;20314;-43
2023/09/04 09:30:09;;;;;;;5.13;2.38;;;;;;;-146.87;100.00;60295.22;4984641;28;20217;-43
2023/09/04 09:32:35;;;;;;;6.07;2.15;;;;;;;-146.87;100.00;60295.22;4984642;28;20235;-42
2023/09/04 09:35:02;;;;;;;2.55;2.20;;;;;;;-146.87;100.00;60295.22;4981421;28;20279;-42
2023/09/04 09:37:31;;;;;;;2.63;2.22;;;;;;;-146.87;100.00;60295.22;4981071;28;20280;-41
2023/09/04 09:39:57;;;;;;;4.55;2.00;;;;;;;-146.87;100.00;60295.22;4977833;28;20592;-44
2023/09/04 09:42:25;;;;;;;2.65;1.60;;;;;;;-146.87;100.00;60295.22;4978820;28;20219;-41
2023/09/04 09:44:51;;;;;;;2.50;1.90;;;;;;;-146.87;100.00;60295.22;4980078;28;20537;-42
2023/09/04 09:47:17;;;;;;;2.33;1.90;;;;;;;-146.87;100.00;60295.22;4982389;28;20300;-43
2023/09/04 09:49:45;;;;;;;2.97;1.55;;;;;;;-146.87;100.00;60295.22;4975295;28;20218;-43
2023/09/04 09:52:11;;;;;;;2.03;1.42;;;;;;;-146.87;100.00;60295.22;4981163;28;20185;-42
2023/09/04 09:54:42;;;;;;;2.60;1.85;;;;;;;-146.87;100.00;60295.22;4988006;28;20177;-40
2023/09/04 09:57:12;;;;;;;1.65;1.50;;;;;;;-146.87;100.00;60295.22;4963630;28;20181;-43
2023/09/04 09:59:47;;;;;;;2.58;1.65;;;;;;;-146.87;100.00;60295.22;4982609;28;20270;-43
2023/09/04 10:02:21;;;;;;;2.00;1.50;;;;;;;-146.87;100.00;60295.22;4982459;28;20180;-42
2023/09/04 10:04:47;;;;;;;2.95;1.45;;;;;;;-146.87;100.00;60295.22;4981008;28;20591;-43
2023/09/04 10:07:20;;;;;;;2.10;1.50;;;;;;;-146.87;100.00;60295.22;4984936;28;20577;-44
2023/09/04 10:09:50;;;;;;;1.50;1.40;;;;;;;-146.87;100.00;60295.22;4984195;28;20219;-45
2023/09/04 10:13:14;;;;;;;2.80;1.33;;;;;;;-146.87;100.00;60295.22;4982745;28;20236;-45
2023/09/04 10:15:42;;;;;;;2.70;1.70;;;;;;;-146.87;100.00;60295.22;4976679;28;20702;-45
2023/09/04 10:18:18;;;;;;;1.60;1.30;;;;;;;-146.87;100.00;60295.22;4985985;28;20191;-44
2023/09/04 10:20:44;;;;;;;1.90;1.20;;;;;;;-146.87;100.00;60295.22;4981683;28;20208;-46
2023/09/04 10:23:11;;;;;;;2.60;1.63;;;;;;;-146.87;100.00;60295.22;4979702;28;20191;-45
2023/09/04 10:25:53;;;;;;;3.70;1.60;;;;;;;-146.87;100.00;60295.22;4988916;28;20272;-44
2023/09/04 10:28:23;;;;;;;1.58;1.48;;;;;;;-146.87;100.00;60295.22;4997475;28;20279;-43
2023/09/04 10:30:52;;;;;;;2.67;1.48;;;;;;;-146.87;100.00;60295.22;4981918;28;20213;-44
2023/09/04 10:33:20;;;;;;;1.45;1.33;;;;;;;-146.87;100.00;60295.22;4973158;28;20188;-43
2023/09/04 10:35:45;;;;;;;2.72;1.15;;;;;;;-146.87;100.00;60295.22;4988191;28;20558;-44
2023/09/04 10:38:12;;;;;;;1.98;1.40;;;;;;;-146.87;100.00;60295.22;4978111;28;20184;-45
2023/09/04 10:40:39;;;;;;;1.60;1.50;;;;;;;-146.87;100.00;60295.22;4981172;28;20309;-44
2023/09/04 10:43:05;;;;;;;2.35;1.50;;;;;;;-146.87;100.00;60295.22;4984679;28;20243;-44
2023/09/04 10:45:32;;;;;;;1.63;1.50;;;;;;;-146.87;100.00;60295.22;4984586;28;20558;-47
2023/09/04 10:47:59;;;;;;;1.70;1.40;;;;;;;-146.87;100.00;60295.22;4974045;28;20668;-45
2023/09/04 10:50:25;;;;;;;1.85;1.52;;;;;;;-146.87;100.00;60295.22;4983966;28;20741;-46
2023/09/04 10:52:51;;;;;;;1.40;1.30;;;;;;;-146.87;100.00;60295.22;4985141;28;20300;-44
2023/09/04 10:55:17;;;;;;;1.88;1.65;;;;;;;-146.87;100.00;60295.22;4985522;28;20664;-44
2023/09/04 10:57:57;;;;;;;1.90;1.80;;;;;;;-146.87;100.00;60295.22;4966234;28;20272;-44
2023/09/04 11:00:29;;;;;;;1.67;1.58;;;;;;;-146.87;100.00;60295.22;4988475;28;20204;-45